createdAt,value
2023-04-11T00:00:39.328Z,11.00
2023-04-11T00:01:39.409Z,11.04
2023-04-11T00:03:15.130Z,11.06
2023-04-11T00:03:39.583Z,11.04
2023-04-11T00:04:39.671Z,11.04
2023-04-11T00:05:39.278Z,11.00
2023-04-11T00:06:39.256Z,10.99
2023-04-11T00:07:39.275Z,10.96
2023-04-11T00:08:39.239Z,10.91
2023-04-11T00:09:39.224Z,10.86
2023-04-11T00:10:39.431Z,10.86
2023-04-11T00:11:39.211Z,10.84
2023-04-11T00:12:39.198Z,10.78
2023-04-11T00:13:39.179Z,10.78
2023-04-11T00:14:39.178Z,10.76
2023-04-11T00:15:39.171Z,10.71
2023-04-11T00:16:39.201Z,10.73
2023-04-11T00:17:39.167Z,10.70
2023-04-11T00:18:39.136Z,10.70
2023-04-11T00:19:39.132Z,10.67
2023-04-11T00:20:39.097Z,10.67
2023-04-11T00:21:39.097Z,10.68
2023-04-11T00:22:39.093Z,10.68
2023-04-11T00:23:39.072Z,10.67
2023-04-11T00:24:39.053Z,10.70
2023-04-11T00:25:39.060Z,10.70
2023-04-11T00:26:39.032Z,10.68
2023-04-11T00:27:39.663Z,10.67
2023-04-11T00:28:39.012Z,10.66
2023-04-11T00:29:39.013Z,10.67
2023-04-11T00:30:38.995Z,10.66
2023-04-11T00:31:39.009Z,10.68
2023-04-11T00:32:39.007Z,10.68
2023-04-11T00:33:40.539Z,10.67
2023-04-11T00:34:38.941Z,10.68
2023-04-11T00:35:38.971Z,10.66
2023-04-11T00:36:38.987Z,10.66
2023-04-11T00:37:39.025Z,10.61
2023-04-11T00:38:38.903Z,10.66
2023-04-11T00:39:38.909Z,10.61
2023-04-11T00:40:38.880Z,10.61
2023-04-11T00:41:38.880Z,10.60
2023-04-11T00:42:38.864Z,10.63
2023-04-11T00:43:38.854Z,10.66
2023-04-11T00:44:38.843Z,10.64
2023-04-11T00:45:38.891Z,10.66
2023-04-11T00:46:38.824Z,10.68
2023-04-11T00:47:38.949Z,10.68
2023-04-11T00:48:38.787Z,10.71
2023-04-11T00:49:38.984Z,10.71
2023-04-11T00:50:38.778Z,10.76
2023-04-11T00:51:38.761Z,10.79
2023-04-11T00:52:38.775Z,10.82
2023-04-11T00:53:38.737Z,10.84
2023-04-11T00:54:38.728Z,10.88
2023-04-11T00:55:38.727Z,10.91
2023-04-11T00:56:38.757Z,10.91
2023-04-11T00:57:38.697Z,10.91
2023-04-11T00:58:38.684Z,10.86
2023-04-11T00:59:38.675Z,10.89
2023-04-11T01:00:38.652Z,10.89
2023-04-11T01:01:38.739Z,10.94
2023-04-11T01:02:38.775Z,10.99
2023-04-11T01:03:38.819Z,11.09
2023-04-11T01:04:38.618Z,11.09
2023-04-11T01:05:38.627Z,11.09
2023-04-11T01:06:38.604Z,11.04
2023-04-11T01:07:38.929Z,10.99
2023-04-11T01:08:38.760Z,10.97
2023-04-11T01:09:38.577Z,10.91
2023-04-11T01:10:38.554Z,10.86
2023-04-11T01:11:38.641Z,10.88
2023-04-11T01:12:38.540Z,10.85
2023-04-11T01:13:38.529Z,10.82
2023-04-11T01:14:38.523Z,10.79
2023-04-11T01:15:38.496Z,10.74
2023-04-11T01:16:38.536Z,10.71
2023-04-11T01:17:38.550Z,10.68
2023-04-11T01:18:38.469Z,10.71
2023-04-11T01:19:38.459Z,10.73
2023-04-11T01:20:38.505Z,10.71
2023-04-11T01:21:38.432Z,10.70
2023-04-11T01:22:38.426Z,10.64
2023-04-11T01:23:38.480Z,10.60
2023-04-11T01:24:38.401Z,10.55
2023-04-11T01:25:38.396Z,10.47
2023-04-11T01:26:38.381Z,10.41
2023-04-11T01:27:38.374Z,10.44
2023-04-11T01:28:38.357Z,10.42
2023-04-11T01:29:38.381Z,10.42
2023-04-11T01:30:38.408Z,10.44
2023-04-11T01:31:38.334Z,10.44
2023-04-11T01:32:38.335Z,10.47
2023-04-11T01:33:38.305Z,10.45
2023-04-11T01:34:38.299Z,10.44
2023-04-11T01:35:38.327Z,10.44
2023-04-11T01:36:38.288Z,10.45
2023-04-11T01:37:38.281Z,10.47
2023-04-11T01:38:38.247Z,10.48
2023-04-11T01:39:38.233Z,10.52
2023-04-11T01:40:38.522Z,10.53
2023-04-11T01:41:38.208Z,10.53
2023-04-11T01:42:38.194Z,10.53
2023-04-11T01:43:38.310Z,10.51
2023-04-11T01:44:38.189Z,10.51
2023-04-11T01:45:38.179Z,10.51
2023-04-11T01:46:38.174Z,10.47
2023-04-11T01:47:38.269Z,10.44
2023-04-11T01:48:38.269Z,10.44
2023-04-11T01:49:38.123Z,10.40
2023-04-11T01:50:38.114Z,10.38
2023-04-11T01:51:38.120Z,10.33
2023-04-11T01:52:38.098Z,10.30
2023-04-11T01:53:38.085Z,10.30
2023-04-11T01:54:38.077Z,10.29
2023-04-11T01:55:38.061Z,10.26
2023-04-11T01:56:38.046Z,10.25
2023-04-11T01:57:38.047Z,10.29
2023-04-11T01:58:38.020Z,10.27
2023-04-11T01:59:38.139Z,10.30
2023-04-11T02:00:37.997Z,10.30
2023-04-11T02:01:38.062Z,10.34
2023-04-11T02:02:38.078Z,10.40
2023-04-11T02:03:38.045Z,10.44
2023-04-11T02:04:37.958Z,10.44
2023-04-11T02:05:37.947Z,10.45
2023-04-11T02:06:37.941Z,10.51
2023-04-11T02:07:38.151Z,10.52
2023-04-11T02:08:37.918Z,10.61
2023-04-11T02:09:37.907Z,10.63
2023-04-11T02:10:38.350Z,10.66
2023-04-11T02:11:37.900Z,10.68
2023-04-11T02:12:37.870Z,10.68
2023-04-11T02:13:37.875Z,10.73
2023-04-11T02:14:37.849Z,10.73
2023-04-11T02:15:37.877Z,10.68
2023-04-11T02:16:37.834Z,10.66
2023-04-11T02:17:37.878Z,10.61
2023-04-11T02:18:37.823Z,10.60
2023-04-11T02:19:37.801Z,10.60
2023-04-11T02:20:37.784Z,10.55
2023-04-11T02:21:37.779Z,10.48
2023-04-11T02:22:37.760Z,10.48
2023-04-11T02:23:37.767Z,10.40
2023-04-11T02:24:37.807Z,10.36
2023-04-11T02:25:37.728Z,10.34
2023-04-11T02:26:37.740Z,10.36
2023-04-11T02:27:37.713Z,10.33
2023-04-11T02:28:37.697Z,10.32
2023-04-11T02:29:37.689Z,10.32
2023-04-11T02:30:37.909Z,10.34
2023-04-11T02:31:37.746Z,10.32
2023-04-11T02:32:37.760Z,10.33
2023-04-11T02:33:37.657Z,10.33
2023-04-11T02:34:38.200Z,10.33
2023-04-11T02:35:37.645Z,10.33
2023-04-11T02:36:37.621Z,10.34
2023-04-11T02:37:37.603Z,10.32
2023-04-11T02:38:37.843Z,10.26
2023-04-11T02:39:37.580Z,10.29
2023-04-11T02:40:37.569Z,10.27
2023-04-11T02:41:37.559Z,10.27
2023-04-11T02:42:37.563Z,10.26
2023-04-11T02:43:37.548Z,10.23
2023-04-11T02:44:37.534Z,10.23
2023-04-11T02:45:37.516Z,10.22
2023-04-11T02:46:37.593Z,10.27
2023-04-11T02:47:37.533Z,10.30
2023-04-11T02:48:37.490Z,10.33
2023-04-11T02:49:37.472Z,10.33
2023-04-11T02:50:37.455Z,10.36
2023-04-11T02:51:37.450Z,10.36
2023-04-11T02:52:37.449Z,10.38
2023-04-11T02:53:38.224Z,10.36
2023-04-11T02:54:37.417Z,10.36
2023-04-11T02:55:37.402Z,10.38
2023-04-11T02:56:37.411Z,10.36
2023-04-11T02:57:37.389Z,10.42
2023-04-11T02:58:37.379Z,10.41
2023-04-11T02:59:37.355Z,10.48
2023-04-11T03:00:37.350Z,10.67
2023-04-11T03:01:38.040Z,10.81
2023-04-11T03:02:37.461Z,11.00
2023-04-11T03:03:37.375Z,11.09
2023-04-11T03:04:37.360Z,11.25
2023-04-11T03:05:37.302Z,11.54
2023-04-11T03:06:37.282Z,11.73
2023-04-11T03:07:37.268Z,11.86
2023-04-11T03:08:37.286Z,11.86
2023-04-11T03:09:37.252Z,11.82
2023-04-11T03:10:37.280Z,11.75
2023-04-11T03:11:37.226Z,11.79
2023-04-11T03:12:37.233Z,11.73
2023-04-11T03:13:37.285Z,11.76
2023-04-11T03:14:37.194Z,11.88
2023-04-11T03:15:37.230Z,11.88
2023-04-11T03:16:37.643Z,11.90
2023-04-11T03:17:37.201Z,11.90
2023-04-11T03:18:37.160Z,11.88
2023-04-11T03:19:37.146Z,11.83
2023-04-11T03:20:37.969Z,11.80
2023-04-11T03:21:37.120Z,11.73
2023-04-11T03:22:37.113Z,11.69
2023-04-11T03:23:37.099Z,11.62
2023-04-11T03:24:37.901Z,11.61
2023-04-11T03:25:37.077Z,11.54
2023-04-11T03:26:37.070Z,11.60
2023-04-11T03:27:37.062Z,11.64
2023-04-11T03:28:37.052Z,11.67
2023-04-11T03:29:37.030Z,11.65
2023-04-11T03:30:37.019Z,11.69
2023-04-11T03:31:37.018Z,11.70
2023-04-11T03:32:37.047Z,11.79
2023-04-11T03:33:37.012Z,11.83
2023-04-11T03:34:37.025Z,11.96
2023-04-11T03:35:36.966Z,12.41
2023-04-11T03:36:36.960Z,12.67
2023-04-11T03:37:36.950Z,12.71
2023-04-11T03:38:36.951Z,12.72
2023-04-11T03:39:36.919Z,12.72
2023-04-11T03:40:36.922Z,12.74
2023-04-11T03:41:36.899Z,12.71
2023-04-11T03:42:36.898Z,12.86
2023-04-11T03:43:36.890Z,12.96
2023-04-11T03:44:36.871Z,12.95
2023-04-11T03:45:36.857Z,12.97
2023-04-11T03:46:36.992Z,12.96
2023-04-11T03:47:36.913Z,13.00
2023-04-11T03:48:36.833Z,12.96
2023-04-11T03:49:36.827Z,12.96
2023-04-11T03:50:36.803Z,12.93
2023-04-11T03:51:36.794Z,12.89
2023-04-11T03:52:36.800Z,12.85
2023-04-11T03:53:36.764Z,12.83
2023-04-11T03:54:36.764Z,12.92
2023-04-11T03:55:36.747Z,13.01
2023-04-11T03:56:36.746Z,13.10
2023-04-11T03:57:36.724Z,13.11
2023-04-11T03:58:36.722Z,13.14
2023-04-11T03:59:37.530Z,13.15
2023-04-11T04:00:36.912Z,13.12
2023-04-11T04:01:36.777Z,13.07
2023-04-11T04:02:36.821Z,13.01
2023-04-11T04:03:36.944Z,12.97
2023-04-11T04:04:36.903Z,12.92
2023-04-11T04:05:36.676Z,12.86
2023-04-11T04:06:36.644Z,12.87
2023-04-11T04:07:36.619Z,12.95
2023-04-11T04:08:37.403Z,12.93
2023-04-11T04:09:36.736Z,12.83
2023-04-11T04:10:36.585Z,12.70
2023-04-11T04:11:36.570Z,12.52
2023-04-11T04:12:36.597Z,12.37
2023-04-11T04:13:36.563Z,12.21
2023-04-11T04:14:36.542Z,12.10
2023-04-11T04:15:36.523Z,11.98
2023-04-11T04:16:36.641Z,11.91
2023-04-11T04:17:36.546Z,11.90
2023-04-11T04:18:36.500Z,11.88
2023-04-11T04:19:36.491Z,11.86
2023-04-11T04:20:36.497Z,11.82
2023-04-11T04:21:36.476Z,11.78
2023-04-11T04:22:36.467Z,11.75
2023-04-11T04:23:36.434Z,11.72
2023-04-11T04:24:36.432Z,11.73
2023-04-11T04:25:36.433Z,11.67
2023-04-11T04:26:36.418Z,11.64
2023-04-11T04:27:36.396Z,11.55
2023-04-11T04:28:36.392Z,11.47
2023-04-11T04:29:36.378Z,11.51
2023-04-11T04:30:36.366Z,11.52
2023-04-11T04:31:36.377Z,11.49
2023-04-11T04:32:36.357Z,11.51
2023-04-11T04:33:36.332Z,11.46
2023-04-11T04:34:36.320Z,11.51
2023-04-11T04:35:36.321Z,11.57
2023-04-11T04:36:36.310Z,11.55
2023-04-11T04:37:36.282Z,11.55
2023-04-11T04:38:36.277Z,11.54
2023-04-11T04:39:36.260Z,11.49
2023-04-11T04:40:36.253Z,11.44
2023-04-11T04:41:36.249Z,11.40
2023-04-11T04:42:36.240Z,11.37
2023-04-11T04:43:36.219Z,11.39
2023-04-11T04:44:36.212Z,11.35
2023-04-11T04:45:36.209Z,11.35
2023-04-11T04:46:36.194Z,11.28
2023-04-11T04:47:36.209Z,11.21
2023-04-11T04:48:36.181Z,11.17
2023-04-11T04:49:36.154Z,11.09
2023-04-11T04:50:36.144Z,11.06
2023-04-11T04:51:36.131Z,11.02
2023-04-11T04:52:36.140Z,10.94
2023-04-11T04:53:36.117Z,10.88
2023-04-11T04:54:36.908Z,10.79
2023-04-11T04:55:36.090Z,10.71
2023-04-11T04:56:36.086Z,10.64
2023-04-11T04:57:36.072Z,10.61
2023-04-11T04:58:36.061Z,10.63
2023-04-11T04:59:36.049Z,10.59
2023-04-11T05:00:36.044Z,10.53
2023-04-11T05:01:36.155Z,10.51
2023-04-11T05:02:36.147Z,10.47
2023-04-11T05:03:36.110Z,10.45
2023-04-11T05:04:35.994Z,10.44
2023-04-11T05:05:35.983Z,10.41
2023-04-11T05:06:35.971Z,10.42
2023-04-11T05:07:35.958Z,10.36
2023-04-11T05:08:35.954Z,10.34
2023-04-11T05:09:35.946Z,10.33
2023-04-11T05:10:35.935Z,10.38
2023-04-11T05:11:36.730Z,10.40
2023-04-11T05:12:35.906Z,10.38
2023-04-11T05:13:35.910Z,10.34
2023-04-11T05:14:35.882Z,10.33
2023-04-11T05:15:35.876Z,10.36
2023-04-11T05:16:35.881Z,10.40
2023-04-11T05:17:35.863Z,10.44
2023-04-11T05:18:35.849Z,10.47
2023-04-11T05:19:35.833Z,10.48
2023-04-11T05:20:35.824Z,10.53
2023-04-11T05:21:35.805Z,10.53
2023-04-11T05:22:35.807Z,10.53
2023-04-11T05:23:35.787Z,10.53
2023-04-11T05:24:35.777Z,10.53
2023-04-11T05:25:35.773Z,10.56
2023-04-11T05:26:35.757Z,10.61
2023-04-11T05:27:35.754Z,10.59
2023-04-11T05:28:35.730Z,10.61
2023-04-11T05:29:35.716Z,10.61
2023-04-11T05:30:35.756Z,10.56
2023-04-11T05:31:35.712Z,10.52
2023-04-11T05:32:35.747Z,10.48
2023-04-11T05:33:35.679Z,10.48
2023-04-11T05:34:35.690Z,10.45
2023-04-11T05:35:35.690Z,10.44
2023-04-11T05:36:35.666Z,10.40
2023-04-11T05:37:35.636Z,10.38
2023-04-11T05:38:35.706Z,10.34
2023-04-11T05:39:35.610Z,10.34
2023-04-11T05:40:35.619Z,10.38
2023-04-11T05:41:35.592Z,10.36
2023-04-11T05:42:35.582Z,10.34
2023-04-11T05:43:35.590Z,10.32
2023-04-11T05:44:35.587Z,10.30
2023-04-11T05:45:35.552Z,10.30
2023-04-11T05:46:35.767Z,10.27
2023-04-11T05:47:35.557Z,10.27
2023-04-11T05:48:35.521Z,10.26
2023-04-11T05:49:35.515Z,10.26
2023-04-11T05:50:35.552Z,10.25
2023-04-11T05:51:35.503Z,10.22
2023-04-11T05:52:35.482Z,10.23
2023-04-11T05:53:35.465Z,10.18
2023-04-11T05:54:35.473Z,10.18
2023-04-11T05:55:35.447Z,10.17
2023-04-11T05:56:35.455Z,10.17
2023-04-11T05:57:35.421Z,10.17
2023-04-11T05:58:35.409Z,10.17
2023-04-11T05:59:35.400Z,10.14
2023-04-11T06:00:35.394Z,10.12
2023-04-11T06:01:35.381Z,10.14
2023-04-11T06:02:35.990Z,10.14
2023-04-11T06:03:35.651Z,10.14
2023-04-11T06:04:35.632Z,10.15
2023-04-11T06:05:35.349Z,10.11
2023-04-11T06:06:35.470Z,10.15
2023-04-11T06:07:35.312Z,10.15
2023-04-11T06:08:35.310Z,10.08
2023-04-11T06:09:35.296Z,10.07
2023-04-11T06:10:35.295Z,10.08
2023-04-11T06:11:36.086Z,10.07
2023-04-11T06:12:35.268Z,10.08
2023-04-11T06:13:35.245Z,10.07
2023-04-11T06:14:35.257Z,10.04
2023-04-11T06:15:35.677Z,10.01
2023-04-11T06:16:35.234Z,9.99
2023-04-11T06:17:35.221Z,9.94
2023-04-11T06:18:35.233Z,9.96
2023-04-11T06:19:35.275Z,9.96
2023-04-11T06:20:35.992Z,9.91
2023-04-11T06:21:35.165Z,9.93
2023-04-11T06:22:35.156Z,9.90
2023-04-11T06:23:35.154Z,9.91
2023-04-11T06:24:35.263Z,9.87
2023-04-11T06:25:35.333Z,9.86
2023-04-11T06:26:35.137Z,9.87
2023-04-11T06:27:35.102Z,9.86
2023-04-11T06:28:35.088Z,9.86
2023-04-11T06:29:35.090Z,9.79
2023-04-11T06:30:35.064Z,9.78
2023-04-11T06:31:35.156Z,9.76
2023-04-11T06:32:35.098Z,9.76
2023-04-11T06:33:35.043Z,9.74
2023-04-11T06:34:35.046Z,9.74
2023-04-11T06:35:35.032Z,9.71
2023-04-11T06:36:35.008Z,9.68
2023-04-11T06:37:35.031Z,9.72
2023-04-11T06:38:35.824Z,9.71
2023-04-11T06:39:34.984Z,9.68
2023-04-11T06:40:34.962Z,9.69
2023-04-11T06:41:34.978Z,9.71
2023-04-11T06:42:34.961Z,9.69
2023-04-11T06:43:34.936Z,9.71
2023-04-11T06:44:34.983Z,9.75
2023-04-11T06:45:34.915Z,9.74
2023-04-11T06:46:34.974Z,9.74
2023-04-11T06:47:34.939Z,9.75
2023-04-11T06:48:34.898Z,9.74
2023-04-11T06:49:34.880Z,9.76
2023-04-11T06:50:34.858Z,9.75
2023-04-11T06:51:34.862Z,9.74
2023-04-11T06:52:34.862Z,9.72
2023-04-11T06:53:34.836Z,9.75
2023-04-11T06:54:34.841Z,9.75
2023-04-11T06:55:34.811Z,9.72
2023-04-11T06:56:34.797Z,9.71
2023-04-11T06:57:34.797Z,9.72
2023-04-11T06:58:34.787Z,9.71
2023-04-11T06:59:34.814Z,9.69
2023-04-11T07:00:34.762Z,9.71
2023-04-11T07:01:34.785Z,9.72
2023-04-11T07:02:34.949Z,9.72
2023-04-11T07:03:34.908Z,9.72
2023-04-11T07:04:34.779Z,9.75
2023-04-11T07:05:34.717Z,9.75
2023-04-11T07:06:34.706Z,9.78
2023-04-11T07:07:34.690Z,9.72
2023-04-11T07:08:34.678Z,9.74
2023-04-11T07:09:34.675Z,9.78
2023-04-11T07:10:34.650Z,9.76
2023-04-11T07:11:34.651Z,9.76
2023-04-11T07:12:34.805Z,9.75
2023-04-11T07:13:34.641Z,9.74
2023-04-11T07:14:34.606Z,9.72
2023-04-11T07:15:34.604Z,9.69
2023-04-11T07:16:34.668Z,9.72
2023-04-11T07:17:34.591Z,9.66
2023-04-11T07:18:34.562Z,9.69
2023-04-11T07:19:34.905Z,9.68
2023-04-11T07:20:34.555Z,9.71
2023-04-11T07:21:34.536Z,9.68
2023-04-11T07:22:34.522Z,9.65
2023-04-11T07:23:34.535Z,9.65
2023-04-11T07:24:34.502Z,9.60
2023-04-11T07:25:34.494Z,9.60
2023-04-11T07:26:34.480Z,9.60
2023-04-11T07:27:34.476Z,9.57
2023-04-11T07:28:34.457Z,9.58
2023-04-11T07:29:34.457Z,9.57
2023-04-11T07:30:34.447Z,9.54
2023-04-11T07:31:34.490Z,9.58
2023-04-11T07:32:34.445Z,9.58
2023-04-11T07:33:34.409Z,9.61
2023-04-11T07:34:34.401Z,9.64
2023-04-11T07:35:34.417Z,9.66
2023-04-11T07:36:34.401Z,9.65
2023-04-11T07:37:34.369Z,9.65
2023-04-11T07:38:34.351Z,9.64
2023-04-11T07:39:34.352Z,9.71
2023-04-11T07:40:34.334Z,9.78
2023-04-11T07:41:34.321Z,9.81
2023-04-11T07:42:34.309Z,9.79
2023-04-11T07:43:34.302Z,9.78
2023-04-11T07:44:34.299Z,9.76
2023-04-11T07:45:34.337Z,9.78
2023-04-11T07:46:34.272Z,9.78
2023-04-11T07:47:34.281Z,9.79
2023-04-11T07:48:34.297Z,9.74
2023-04-11T07:49:34.237Z,9.71
2023-04-11T07:50:34.240Z,9.68
2023-04-11T07:51:34.219Z,9.72
2023-04-11T07:52:34.224Z,9.72
2023-04-11T07:53:34.192Z,9.69
2023-04-11T07:54:34.335Z,9.72
2023-04-11T07:55:34.173Z,9.69
2023-04-11T07:56:34.398Z,9.68
2023-04-11T07:57:34.986Z,9.69
2023-04-11T07:58:34.155Z,9.71
2023-04-11T07:59:34.143Z,9.71
2023-04-11T08:00:34.119Z,9.78
2023-04-11T08:01:34.109Z,9.79
2023-04-11T08:02:34.202Z,9.79
2023-04-11T08:03:34.307Z,9.84
2023-04-11T08:04:34.344Z,9.79
2023-04-11T08:05:34.447Z,9.78
2023-04-11T08:06:34.050Z,9.79
2023-04-11T08:07:34.045Z,9.78
2023-04-11T08:08:34.043Z,9.78
2023-04-11T08:09:34.024Z,9.75
2023-04-11T08:10:34.019Z,9.74
2023-04-11T08:11:34.025Z,9.72
2023-04-11T08:12:33.995Z,9.71
2023-04-11T08:13:33.985Z,9.74
2023-04-11T08:14:33.968Z,9.76
2023-04-11T08:15:33.980Z,9.81
2023-04-11T08:16:34.049Z,9.79
2023-04-11T08:17:34.003Z,9.75
2023-04-11T08:18:33.930Z,9.75
2023-04-11T08:19:34.402Z,9.74
2023-04-11T08:20:33.917Z,9.74
2023-04-11T08:21:33.914Z,9.78
2023-04-11T08:22:33.894Z,9.79
2023-04-11T08:23:33.889Z,9.78
2023-04-11T08:24:33.873Z,9.72
2023-04-11T08:25:33.881Z,9.71
2023-04-11T08:26:33.984Z,9.69
2023-04-11T08:27:33.849Z,9.66
2023-04-11T08:28:33.836Z,9.71
2023-04-11T08:29:33.880Z,9.65
2023-04-11T08:30:33.845Z,9.60
2023-04-11T08:31:33.794Z,9.60
2023-04-11T08:32:34.433Z,9.54
2023-04-11T08:33:33.789Z,9.53
2023-04-11T08:34:33.763Z,9.50
2023-04-11T08:35:33.765Z,9.48
2023-04-11T08:36:33.744Z,9.50
2023-04-11T08:37:34.194Z,9.53
2023-04-11T08:38:33.879Z,9.53
2023-04-11T08:39:33.719Z,9.57
2023-04-11T08:40:33.704Z,9.64
2023-04-11T08:41:33.693Z,9.64
2023-04-11T08:42:33.687Z,9.65
2023-04-11T08:43:33.669Z,9.65
2023-04-11T08:44:33.665Z,9.66
2023-04-11T08:45:33.657Z,9.66
2023-04-11T08:46:33.681Z,9.53
2023-04-11T08:47:33.668Z,9.53
2023-04-11T08:48:33.614Z,9.51
2023-04-11T08:49:33.610Z,9.43
2023-04-11T08:50:33.594Z,9.33
2023-04-11T08:51:33.587Z,9.38
2023-04-11T08:52:33.583Z,9.42
2023-04-11T08:53:33.573Z,9.38
2023-04-11T08:54:33.556Z,9.24
2023-04-11T08:55:33.542Z,9.28
2023-04-11T08:56:33.561Z,9.31
2023-04-11T08:57:33.552Z,9.32
2023-04-11T08:58:33.549Z,9.31
2023-04-11T08:59:33.497Z,9.33
2023-04-11T09:00:33.489Z,9.38
2023-04-11T09:01:33.597Z,9.43
2023-04-11T09:02:33.562Z,9.46
2023-04-11T09:03:33.481Z,9.29
2023-04-11T09:04:33.468Z,9.29
2023-04-11T09:05:33.474Z,9.21
2023-04-11T09:06:33.430Z,9.29
2023-04-11T09:07:33.420Z,9.26
2023-04-11T09:08:33.404Z,9.29
2023-04-11T09:09:33.416Z,9.21
2023-04-11T09:10:33.372Z,9.26
2023-04-11T09:11:33.369Z,9.21
2023-04-11T09:12:33.368Z,9.26
2023-04-11T09:13:33.399Z,9.32
2023-04-11T09:14:33.374Z,9.32
2023-04-11T09:15:33.336Z,9.40
2023-04-11T09:16:33.318Z,9.39
2023-04-11T09:17:33.327Z,9.51
2023-04-11T09:18:33.327Z,9.43
2023-04-11T09:19:33.293Z,9.51
2023-04-11T09:20:33.279Z,9.43
2023-04-11T09:21:33.272Z,9.43
2023-04-11T09:22:33.249Z,9.50
2023-04-11T09:23:33.249Z,9.65
2023-04-11T09:24:35.246Z,9.61
2023-04-11T09:25:33.229Z,9.61
2023-04-11T09:26:33.208Z,9.76
2023-04-11T09:27:33.540Z,9.76
2023-04-11T09:28:33.187Z,9.74
2023-04-11T09:29:33.188Z,9.75
2023-04-11T09:30:33.172Z,9.78
2023-04-11T09:31:33.210Z,9.78
2023-04-11T09:32:33.942Z,9.54
2023-04-11T09:33:33.134Z,9.46
2023-04-11T09:34:33.129Z,9.48
2023-04-11T09:35:33.128Z,9.54
2023-04-11T09:36:33.104Z,9.56
2023-04-11T09:37:33.092Z,9.36
2023-04-11T09:38:33.105Z,9.23
2023-04-11T09:39:33.078Z,9.23
2023-04-11T09:40:33.056Z,9.32
2023-04-11T09:41:33.063Z,9.38
2023-04-11T09:42:33.043Z,9.53
2023-04-11T09:43:33.030Z,9.60
2023-04-11T09:44:33.013Z,9.66
2023-04-11T09:45:40.899Z,9.58
2023-04-11T09:46:34.020Z,9.21
2023-04-11T09:47:33.054Z,9.26
2023-04-11T09:48:46.151Z,9.28
2023-04-11T09:49:34.295Z,9.24
2023-04-11T09:50:32.948Z,9.26
2023-04-11T09:51:36.950Z,9.18
2023-04-11T09:52:32.929Z,9.20
2023-04-11T09:53:32.949Z,9.26
2023-04-11T09:54:32.915Z,9.20
2023-04-11T09:55:32.899Z,9.20
2023-04-11T09:56:32.897Z,9.21
2023-04-11T09:57:32.880Z,9.28
2023-04-11T09:58:32.863Z,9.29
2023-04-11T09:59:32.859Z,9.31
2023-04-11T10:00:32.844Z,9.26
2023-04-11T10:01:32.926Z,9.36
2023-04-11T10:02:32.950Z,9.43
2023-04-11T10:03:32.822Z,9.40
2023-04-11T10:04:32.856Z,9.35
2023-04-11T10:05:32.875Z,9.24
2023-04-11T10:06:32.794Z,9.26
2023-04-11T10:07:32.770Z,9.29
2023-04-11T10:08:32.762Z,9.21
2023-04-11T10:09:32.744Z,9.10
2023-04-11T10:10:32.732Z,9.01
2023-04-11T10:11:32.736Z,8.92
2023-04-11T10:12:32.722Z,8.91
2023-04-11T10:13:32.716Z,8.89
2023-04-11T10:14:32.691Z,8.94
2023-04-11T10:15:32.690Z,9.04
2023-04-11T10:16:32.730Z,9.11
2023-04-11T10:17:32.686Z,9.18
2023-04-11T10:18:32.655Z,9.24
2023-04-11T10:19:32.647Z,9.24
2023-04-11T10:20:32.633Z,9.23
2023-04-11T10:21:32.642Z,9.23
2023-04-11T10:22:32.610Z,9.13
2023-04-11T10:23:32.604Z,9.13
2023-04-11T10:24:33.393Z,9.35
2023-04-11T10:25:32.589Z,9.35
2023-04-11T10:26:32.574Z,9.39
2023-04-11T10:27:32.559Z,9.38
2023-04-11T10:28:32.554Z,9.42
2023-04-11T10:29:32.535Z,9.46
2023-04-11T10:30:32.530Z,9.51
2023-04-11T10:31:32.560Z,9.58
2023-04-11T10:32:32.534Z,9.65
2023-04-11T10:33:32.495Z,9.61
2023-04-11T10:34:32.479Z,9.57
2023-04-11T10:35:32.543Z,9.68
2023-04-11T10:36:32.635Z,9.69
2023-04-11T10:37:32.509Z,9.75
2023-04-11T10:38:32.444Z,9.79
2023-04-11T10:39:32.435Z,9.90
2023-04-11T10:40:32.518Z,9.89
2023-04-11T10:41:32.422Z,10.01
2023-04-11T10:42:32.405Z,10.08
2023-04-11T10:43:32.392Z,10.18
2023-04-11T10:44:32.446Z,10.11
2023-04-11T10:45:32.387Z,10.04
2023-04-11T10:46:32.547Z,9.99
2023-04-11T10:47:32.354Z,9.99
2023-04-11T10:48:32.344Z,9.96
2023-04-11T10:49:32.324Z,9.89
2023-04-11T10:50:33.134Z,9.86
2023-04-11T10:51:32.697Z,9.58
2023-04-11T10:52:32.284Z,9.50
2023-04-11T10:53:32.273Z,9.36
2023-04-11T10:54:32.765Z,9.26
2023-04-11T10:55:32.255Z,9.17
2023-04-11T10:56:32.240Z,9.14
2023-04-11T10:57:32.237Z,9.17
2023-04-11T10:58:32.223Z,9.08
2023-04-11T10:59:32.223Z,8.98
2023-04-11T11:00:32.706Z,8.91
2023-04-11T11:01:37.588Z,8.89
2023-04-11T11:02:33.375Z,8.86
2023-04-11T11:03:32.251Z,8.89
2023-04-11T11:04:32.435Z,8.92
2023-04-11T11:05:32.146Z,8.94
2023-04-11T11:06:32.422Z,8.98
2023-04-11T11:07:32.124Z,9.08
2023-04-11T11:08:32.136Z,9.04
2023-04-11T11:09:32.095Z,9.04
2023-04-11T11:10:32.086Z,9.11
2023-04-11T11:11:32.076Z,9.08
2023-04-11T11:12:32.082Z,9.14
2023-04-11T11:13:32.051Z,9.15
2023-04-11T11:14:32.049Z,9.15
2023-04-11T11:15:32.029Z,9.17
2023-04-11T11:16:32.045Z,9.08
2023-04-11T11:17:32.041Z,8.98
2023-04-11T11:18:32.005Z,8.94
2023-04-11T11:19:31.990Z,8.89
2023-04-11T11:20:32.000Z,8.91
2023-04-11T11:21:32.018Z,8.92
2023-04-11T11:22:31.961Z,8.92
2023-04-11T11:23:31.943Z,8.87
2023-04-11T11:24:31.938Z,8.91
2023-04-11T11:25:31.927Z,8.95
2023-04-11T11:26:31.922Z,8.95
2023-04-11T11:27:31.907Z,8.96
2023-04-11T11:28:31.926Z,9.02
2023-04-11T11:29:31.895Z,8.99
2023-04-11T11:30:31.876Z,8.95
2023-04-11T11:31:31.922Z,8.87
2023-04-11T11:32:31.862Z,8.84
2023-04-11T11:33:31.839Z,8.74
2023-04-11T11:34:31.837Z,8.77
2023-04-11T11:35:31.820Z,8.80
2023-04-11T11:36:31.870Z,8.73
2023-04-11T11:37:31.798Z,8.65
2023-04-11T11:38:31.795Z,8.61
2023-04-11T11:39:31.769Z,8.61
2023-04-11T11:40:31.767Z,8.62
2023-04-11T11:41:31.770Z,8.59
2023-04-11T11:42:31.763Z,8.58
2023-04-11T11:43:31.736Z,8.59
2023-04-11T11:44:31.777Z,8.71
2023-04-11T11:45:31.720Z,8.66
2023-04-11T11:46:31.780Z,8.66
2023-04-11T11:47:31.710Z,8.71
2023-04-11T11:48:31.690Z,8.74
2023-04-11T11:49:32.471Z,8.76
2023-04-11T11:50:31.684Z,8.80
2023-04-11T11:51:31.658Z,8.84
2023-04-11T11:52:31.644Z,8.92
2023-04-11T11:53:31.631Z,8.92
2023-04-11T11:54:31.761Z,8.83
2023-04-11T11:55:31.687Z,8.83
2023-04-11T11:56:31.601Z,8.77
2023-04-11T11:57:31.720Z,8.80
2023-04-11T11:58:32.425Z,8.80
2023-04-11T11:59:31.581Z,8.84
2023-04-11T12:00:31.584Z,8.84
2023-04-11T12:01:31.553Z,8.84
2023-04-11T12:02:31.856Z,8.87
2023-04-11T12:03:31.651Z,8.83
2023-04-11T12:04:31.682Z,8.84
2023-04-11T12:05:31.682Z,8.87
2023-04-11T12:06:31.509Z,8.84
2023-04-11T12:07:31.485Z,8.89
2023-04-11T12:08:31.476Z,8.91
2023-04-11T12:09:31.468Z,8.92
2023-04-11T12:10:31.476Z,8.99
2023-04-11T12:11:31.445Z,9.04
2023-04-11T12:12:31.444Z,9.17
2023-04-11T12:13:31.426Z,9.28
2023-04-11T12:14:31.412Z,9.26
2023-04-11T12:15:31.451Z,9.23
2023-04-11T12:16:31.505Z,9.31
2023-04-11T12:17:31.381Z,9.40
2023-04-11T12:18:31.380Z,9.51
2023-04-11T12:19:31.354Z,9.54
2023-04-11T12:20:31.345Z,9.58
2023-04-11T12:21:31.333Z,9.64
2023-04-11T12:22:31.349Z,9.64
2023-04-11T12:23:31.353Z,9.66
2023-04-11T12:24:31.303Z,9.74
2023-04-11T12:25:31.288Z,9.78
2023-04-11T12:26:31.286Z,9.84
2023-04-11T12:27:31.270Z,9.75
2023-04-11T12:28:31.266Z,9.75
2023-04-11T12:29:31.252Z,9.78
2023-04-11T12:30:31.245Z,9.86
2023-04-11T12:31:31.260Z,9.86
2023-04-11T12:32:31.244Z,9.83
2023-04-11T12:33:31.218Z,9.84
2023-04-11T12:34:31.202Z,9.76
2023-04-11T12:35:31.203Z,9.69
2023-04-11T12:37:31.162Z,9.50
2023-04-11T12:38:31.162Z,9.42
2023-04-11T12:39:31.156Z,9.42
2023-04-11T12:40:31.156Z,9.43
2023-04-11T12:41:32.614Z,9.47
2023-04-11T12:42:31.448Z,9.48
2023-04-11T12:43:31.116Z,9.48
2023-04-11T12:44:31.918Z,9.48
2023-04-11T12:45:31.083Z,9.51
2023-04-11T12:46:31.098Z,9.51
2023-04-11T12:47:31.074Z,9.57
2023-04-11T12:48:31.065Z,9.42
2023-04-11T12:49:31.048Z,9.50
2023-04-11T12:50:31.029Z,9.53
2023-04-11T12:51:31.012Z,9.51
2023-04-11T12:52:31.012Z,9.56
2023-04-11T12:53:31.022Z,9.54
2023-04-11T12:54:31.002Z,9.53
2023-04-11T12:55:31.054Z,9.50
2023-04-11T12:56:30.981Z,9.40
2023-04-11T12:57:30.960Z,9.39
2023-04-11T12:58:30.951Z,9.38
2023-04-11T12:59:32.416Z,9.40
2023-04-11T13:00:30.928Z,9.35
2023-04-11T13:01:30.975Z,9.29
2023-04-11T13:02:38.234Z,9.31
2023-04-11T13:03:32.027Z,9.29
2023-04-11T13:04:30.980Z,9.31
2023-04-11T13:05:30.875Z,9.36
2023-04-11T13:06:30.859Z,9.36